Paris, Missouri
Current Conditions -  °F | °C
As of 4:55 AM on Friday 24 Oct 2014 (Local Time) from KHAE Reporting Station
Moderate Fog Moderate Fog  
Wind Chill: 11°   Ceiling: 200
Heat Index: 11°   Visibility: 0.5mi
Dew Point: 10°   Wind: 0mph
Humidity: 94%   Direction: NA
Pressure: 30.08"   Gusts: NA
Location:  39.48°N, 92°W
Report Text: KHAE 240955Z AUTO 00000KT 1/2SM FG OVC002 11/10 A3008 RMK AO2
Loading
Personal Weather Stations






























Interactive Weather Map
Tropical Storm Tracking
New forecast layout! Learn more

10-Day Weather Forecast

Advertisements
Track Severe Weather on mobile